Time;durP1;ratioP1;P1;durP2;ratioP2;P2;SDS_P1;SDS_P2;PMS_P1;PMS_P2;Temp;Humidity;BMP_temperature;BMP_pressure;BME280_temperature;BME280_humidity;BME280_pressure;Samples;Min_cycle;Max_cycle;Signal;HPM_P1;HPM_P2
2021/06/02 00:00:22;;;;;;;3.47;2.67;;;;;;;12.73;68.35;102942.16;6360808;28;20548;-72
2021/06/02 00:03:31;;;;;;;3.10;2.90;;;;;;;12.68;69.09;102939.94;6360837;28;20205;-72
2021/06/02 00:06:37;;;;;;;3.95;3.05;;;;;;;12.73;69.06;102947.63;6361218;28;20241;-72
2021/06/02 00:09:40;;;;;;;2.88;2.78;;;;;;;12.77;69.15;102948.94;6361142;28;20186;-72
2021/06/02 00:12:44;;;;;;;3.10;2.90;;;;;;;12.72;69.39;102946.75;6362681;28;20186;-71
2021/06/02 00:15:49;;;;;;;3.63;3.33;;;;;;;12.66;70.02;102946.66;6366054;28;20231;-72
2021/06/02 00:18:53;;;;;;;3.60;3.40;;;;;;;12.65;70.09;102939.44;6365290;28;20347;-72
2021/06/02 00:22:00;;;;;;;3.67;3.10;;;;;;;12.63;70.65;102947.00;6364858;28;20355;-72
2021/06/02 00:25:05;;;;;;;3.60;3.30;;;;;;;12.54;71.16;102944.31;6364132;28;20220;-72
2021/06/02 00:28:13;;;;;;;3.42;3.25;;;;;;;12.56;70.44;102936.75;6364993;28;20213;-71
2021/06/02 00:31:18;;;;;;;3.00;2.90;;;;;;;12.51;71.18;102950.13;6366202;28;20186;-72
2021/06/02 00:34:23;;;;;;;4.45;3.25;;;;;;;12.44;71.90;102949.16;6364370;28;20229;-72
2021/06/02 00:37:29;;;;;;;3.15;3.08;;;;;;;12.54;71.51;102971.69;6365104;28;20239;-72
2021/06/02 00:40:39;;;;;;;3.15;3.05;;;;;;;12.60;71.37;102955.56;6364582;28;20395;-72
2021/06/02 00:43:43;;;;;;;3.35;3.15;;;;;;;12.51;71.70;102966.56;6365058;28;20214;-72
2021/06/02 00:46:49;;;;;;;3.28;3.08;;;;;;;12.64;71.43;102965.13;6365171;28;20469;-72
2021/06/02 00:49:53;;;;;;;3.10;2.95;;;;;;;12.48;71.82;102972.38;6365616;28;20246;-72
2021/06/02 00:52:59;;;;;;;2.90;2.70;;;;;;;12.13;72.77;102934.56;6365339;28;20186;-71
2021/06/02 00:56:04;;;;;;;3.00;2.90;;;;;;;12.36;73.01;102967.47;6365699;28;20219;-72
2021/06/02 00:59:10;;;;;;;3.05;2.83;;;;;;;12.44;72.42;102973.78;6365300;28;20228;-72
2021/06/02 01:02:16;;;;;;;3.03;2.83;;;;;;;12.35;73.13;102963.88;6365315;28;20237;-72
2021/06/02 01:05:24;;;;;;;3.28;3.17;;;;;;;12.29;73.62;102966.50;6329159;22;20447;-71
2021/06/02 01:08:30;;;;;;;3.60;3.38;;;;;;;12.39;72.77;102956.19;6314731;28;20183;-70
2021/06/02 01:11:35;;;;;;;3.28;3.10;;;;;;;12.36;72.21;102979.28;6314783;28;20250;-70
2021/06/02 01:14:39;;;;;;;3.50;3.30;;;;;;;12.31;72.65;102981.72;6314728;28;20183;-70
2021/06/02 01:17:43;;;;;;;3.83;3.35;;;;;;;12.37;72.28;102975.53;6314790;28;20222;-71
2021/06/02 01:20:47;;;;;;;3.92;3.42;;;;;;;12.35;71.93;102977.56;6315000;28;20211;-71
2021/06/02 01:23:56;;;;;;;3.17;3.08;;;;;;;12.32;71.99;102972.47;6313479;28;20183;-71
2021/06/02 01:27:01;;;;;;;3.30;3.08;;;;;;;12.29;71.55;102961.88;6313756;28;20259;-71
2021/06/02 01:30:07;;;;;;;3.53;3.22;;;;;;;12.20;72.05;102968.38;6313712;28;20493;-71
2021/06/02 01:33:48;;;;;;;3.80;3.33;;;;;;;12.31;71.99;102975.38;6313151;28;20494;-70
2021/06/02 01:37:08;;;;;;;3.50;3.28;;;;;;;12.28;71.78;102976.56;6313445;28;20222;-70
2021/06/02 01:40:24;;;;;;;4.63;3.17;;;;;;;12.08;72.78;102985.38;6312894;28;20222;-70
2021/06/02 01:43:48;;;;;;;4.65;3.38;;;;;;;12.13;73.36;102983.81;6314164;28;20184;-70
2021/06/02 01:47:28;;;;;;;3.40;3.30;;;;;;;12.12;73.04;102989.47;6314228;28;20188;-70
2021/06/02 01:50:53;;;;;;;3.25;3.05;;;;;;;12.19;72.85;102988.59;6283020;28;20199;-70
2021/06/02 01:54:46;;;;;;;3.42;3.33;;;;;;;12.11;73.32;102991.34;6312699;28;20528;-70
2021/06/02 01:58:17;;;;;;;4.28;3.70;;;;;;;12.17;72.83;102998.84;6312374;28;20192;-71
2021/06/02 02:01:53;;;;;;;5.47;3.80;;;;;;;12.16;72.68;102999.91;6312378;28;20433;-71
2021/06/02 02:05:09;;;;;;;7.07;3.42;;;;;;;12.00;73.87;102999.06;6312920;28;20265;-71
2021/06/02 02:08:42;;;;;;;4.43;3.47;;;;;;;12.10;73.44;102994.25;6313632;28;20207;-70
2021/06/02 02:11:46;;;;;;;3.60;3.50;;;;;;;12.27;73.04;102996.78;6312226;28;20483;-71
2021/06/02 02:15:05;;;;;;;3.60;3.35;;;;;;;12.18;73.53;103003.31;6313347;28;20246;-71
2021/06/02 02:18:40;;;;;;;3.28;3.17;;;;;;;12.15;73.71;102992.69;6313795;28;20229;-71
2021/06/02 02:21:51;;;;;;;3.70;3.15;;;;;;;12.00;74.44;102997.19;6311870;28;20473;-71
2021/06/02 02:25:01;;;;;;;3.70;3.10;;;;;;;11.99;74.44;103003.72;6312945;28;20188;-71
2021/06/02 02:28:21;;;;;;;3.65;3.45;;;;;;;11.86;76.17;103003.38;6313238;28;20215;-71
2021/06/02 02:31:51;;;;;;;3.10;3.00;;;;;;;11.90;75.75;103011.06;6312853;28;20226;-70
2021/06/02 02:35:29;;;;;;;3.50;3.40;;;;;;;11.96;75.23;103023.19;6312187;28;20191;-71
2021/06/02 02:38:54;;;;;;;3.63;3.53;;;;;;;11.96;75.30;103020.47;6298115;28;20231;-70
2021/06/02 02:42:07;;;;;;;4.35;3.33;;;;;;;11.98;75.15;103012.94;6312643;28;20225;-71
2021/06/02 02:45:23;;;;;;;3.70;3.50;;;;;;;11.97;75.50;103022.16;6311712;28;20358;-71
2021/06/02 02:48:36;;;;;;;3.30;3.20;;;;;;;12.03;75.51;103026.94;6311574;28;20435;-71
2021/06/02 02:51:52;;;;;;;7.05;3.47;;;;;;;11.87;76.34;103026.97;6312872;28;20234;-71
2021/06/02 02:55:05;;;;;;;3.42;3.22;;;;;;;11.99;76.07;103031.06;6312910;28;20222;-71
2021/06/02 02:58:16;;;;;;;3.53;3.25;;;;;;;12.01;76.11;103031.75;6311820;28;20247;-70
2021/06/02 03:01:25;;;;;;;2.90;2.88;;;;;;;11.92;76.48;103040.97;6311311;28;20533;-71
2021/06/02 03:04:40;;;;;;;3.42;3.33;;;;;;;11.79;77.44;103025.09;6312272;28;20227;-70
2021/06/02 03:07:48;;;;;;;3.60;3.40;;;;;;;11.96;77.01;103030.53;6311301;28;20408;-71
2021/06/02 03:11:01;;;;;;;3.60;3.50;;;;;;;11.94;77.22;103033.44;6311324;28;20518;-70
2021/06/02 03:14:13;;;;;;;3.60;3.40;;;;;;;12.01;76.96;103045.41;6311248;28;20184;-71
2021/06/02 03:17:24;;;;;;;3.75;3.55;;;;;;;11.99;77.66;103052.97;6312487;28;20183;-70
2021/06/02 03:20:35;;;;;;;3.95;3.65;;;;;;;12.05;77.37;103045.91;6311193;28;20215;-70
2021/06/02 03:24:01;;;;;;;3.47;3.28;;;;;;;12.16;77.39;103043.69;6311001;28;20327;-70
2021/06/02 03:27:10;;;;;;;3.55;3.35;;;;;;;12.20;76.63;103055.97;6312151;28;20183;-70
2021/06/02 03:30:31;;;;;;;3.88;3.60;;;;;;;12.08;77.65;103046.44;6312050;28;20230;-71
2021/06/02 03:33:52;;;;;;;3.33;2.90;;;;;;;12.10;77.55;103047.09;6311063;28;20213;-72
2021/06/02 03:37:23;;;;;;;3.55;3.25;;;;;;;12.20;77.40;103050.50;6311069;28;20405;-72
2021/06/02 03:40:43;;;;;;;3.10;2.97;;;;;;;12.19;77.94;103043.34;6312295;28;20192;-72
2021/06/02 03:43:51;;;;;;;3.25;3.20;;;;;;;12.32;77.10;103046.38;6311908;28;20254;-72
2021/06/02 03:47:06;;;;;;;3.40;3.25;;;;;;;12.24;77.55;103057.34;6311037;28;20261;-71
2021/06/02 03:50:17;;;;;;;4.63;3.55;;;;;;;12.27;77.09;103057.00;6315687;28;20207;-71
2021/06/02 03:53:35;;;;;;;3.70;3.50;;;;;;;12.25;77.52;103053.56;6315447;28;20474;-72
2021/06/02 03:57:11;;;;;;;6.47;3.10;;;;;;;12.37;76.84;103057.66;6316627;28;20191;-71
2021/06/02 04:00:17;;;;;;;3.67;3.47;;;;;;;12.44;75.98;103057.81;6298696;28;20207;-71
2021/06/02 04:03:23;;;;;;;3.03;2.97;;;;;;;12.43;76.42;103067.91;6297624;28;20423;-71
2021/06/02 04:06:33;;;;;;;3.60;3.33;;;;;;;12.53;76.20;103068.53;6316461;28;20184;-69
2021/06/02 04:09:52;;;;;;;2.90;2.80;;;;;;;12.54;76.32;103070.28;6316086;28;20206;-69
2021/06/02 04:13:03;;;;;;;4.03;3.42;;;;;;;12.56;75.65;103068.19;6316369;28;20194;-70
2021/06/02 04:16:10;;;;;;;2.88;2.78;;;;;;;12.62;75.52;103060.31;6314927;28;20531;-70
2021/06/02 04:19:15;;;;;;;3.20;3.00;;;;;;;12.56;75.56;103068.19;6314928;28;20528;-70
2021/06/02 04:22:20;;;;;;;2.90;2.80;;;;;;;12.65;74.79;103059.97;6314815;28;20277;-70
2021/06/02 04:25:26;;;;;;;6.38;3.25;;;;;;;12.67;74.91;103068.84;6316136;28;20206;-69
2021/06/02 04:28:40;;;;;;;3.10;2.90;;;;;;;12.63;74.73;103056.56;6314907;28;20196;-69
2021/06/02 04:31:52;;;;;;;3.70;3.30;;;;;;;12.80;74.25;103069.13;6315572;28;20187;-69
2021/06/02 04:34:56;;;;;;;2.97;2.90;;;;;;;12.85;73.91;103075.78;6314513;28;20230;-70
2021/06/02 04:38:00;;;;;;;3.10;3.08;;;;;;;12.83;73.55;103077.00;6315415;28;20183;-70
2021/06/02 04:41:06;;;;;;;3.83;3.30;;;;;;;12.95;73.13;103083.78;6314383;28;20477;-70
2021/06/02 04:44:16;;;;;;;3.50;3.38;;;;;;;12.97;72.95;103076.25;6315102;28;20211;-70
2021/06/02 04:47:23;;;;;;;5.70;3.00;;;;;;;13.10;72.88;103073.81;6315358;28;20215;-70
2021/06/02 04:50:33;;;;;;;3.17;2.88;;;;;;;13.13;71.92;103078.94;6314034;28;20381;-70
2021/06/02 04:54:24;;;;;;;2.95;2.95;;;;;;;13.18;71.88;103079.25;6315030;28;20187;-70
2021/06/02 04:58:06;;;;;;;2.85;2.75;;;;;;;13.27;71.31;103080.94;6314510;28;20184;-69
2021/06/02 05:01:42;;;;;;;2.80;2.60;;;;;;;13.32;71.89;103092.19;6314649;28;20215;-70
2021/06/02 05:05:14;;;;;;;3.08;2.97;;;;;;;13.37;71.14;103092.50;6314496;28;20223;-69
2021/06/02 05:09:00;;;;;;;3.63;3.42;;;;;;;13.49;70.09;103091.06;6270317;28;20231;-69
2021/06/02 05:12:59;;;;;;;3.00;2.80;;;;;;;13.48;69.83;103103.03;6314132;28;20188;-71
2021/06/02 05:16:57;;;;;;;2.97;2.75;;;;;;;13.57;70.13;103107.47;6314215;28;20191;-69
2021/06/02 05:20:39;;;;;;;2.93;2.83;;;;;;;13.68;69.79;103109.78;6296076;28;20270;-70
2021/06/02 05:24:01;;;;;;;;;;;;;;;13.97;68.85;103110.94;6287434;28;20048;-70
2021/06/02 05:27:30;;;;;;;;;;;;;;;14.53;66.22;103104.91;6315282;28;20202;-70
2021/06/02 05:30:58;;;;;;;;;;;;;;;14.78;65.53;103109.09;6314517;28;19962;-70
2021/06/02 05:34:30;;;;;;;;;;;;;;;14.93;64.98;103106.31;6313368;28;19916;-70
2021/06/02 05:37:48;;;;;;;;;;;;;;;15.11;63.93;103114.16;6314823;28;19916;-70
2021/06/02 05:41:05;;;;;;;;;;;;;;;15.13;63.73;103106.56;6313361;28;20217;-70
2021/06/02 05:44:30;;;;;;;;;;;;;;;15.24;64.29;103103.31;6314104;28;19996;-70
2021/06/02 05:47:51;;;;;;;;;;;;;;;15.31;63.75;103126.25;6314158;28;19922;-70
2021/06/02 05:51:17;;;;;;;;;;;;;;;15.35;63.15;103122.09;6313086;28;20102;-71
2021/06/02 05:54:35;;;;;;;;;;;;;;;15.49;62.67;103119.31;6313814;28;19916;-70
2021/06/02 05:58:05;;;;;;;;;;;;;;;15.67;62.53;103110.63;6314092;28;19924;-72
2021/06/02 06:01:15;;;;;;;;;;;;;;;15.77;61.69;103111.13;6313114;28;19979;-71
2021/06/02 06:04:39;;;;;;;;;;;;;;;15.90;61.08;103116.78;6313948;28;19922;-71
2021/06/02 06:08:09;;;;;;;;;;;;;;;16.01;60.89;103119.00;6308841;28;19916;-70
2021/06/02 06:11:31;;;;;;;;;;;;;;;16.09;60.75;103118.88;6312689;28;19920;-71
2021/06/02 06:15:02;;;;;;;;;;;;;;;16.15;59.34;103120.00;6312488;28;20251;-70
2021/06/02 06:18:16;;;;;;;;;;;;;;;16.27;59.51;103122.00;6277092;28;20133;-70
2021/06/02 06:21:43;;;;;;;;;;;;;;;16.43;59.30;103125.50;6313525;28;19923;-70
2021/06/02 06:24:48;;;;;;;;;;;;;;;16.45;58.71;103115.13;6313521;28;19962;-71
2021/06/02 06:27:55;;;;;;;;;;;;;;;16.56;59.04;103128.38;6311930;28;19996;-70
2021/06/02 06:30:59;;;;;;;;;;;;;;;16.68;58.27;103127.63;6312188;28;19959;-71
2021/06/02 06:34:06;;;;;;;;;;;;;;;16.74;57.59;103125.97;6311969;28;19916;-71
2021/06/02 06:37:11;;;;;;;;;;;;;;;16.89;58.21;103112.91;6311803;28;20280;-71
2021/06/02 06:40:16;;;;;;;;;;;;;;;16.97;56.85;103115.50;6294589;28;20080;-71
2021/06/02 06:43:21;;;;;;;;;;;;;;;16.90;56.01;103120.09;6313175;28;19916;-72
2021/06/02 06:46:27;;;;;;;2.60;2.50;;;;;;;16.94;56.14;103098.50;6312319;28;20059;-71
2021/06/02 06:49:33;;;;;;;2.10;2.10;;;;;;;17.03;55.38;103117.41;6312210;28;20247;-71
2021/06/02 06:52:42;;;;;;;4.68;3.75;;;;;;;17.17;55.80;103116.44;6312059;28;20226;-71
2021/06/02 06:55:46;;;;;;;3.08;2.33;;;;;;;17.13;54.62;103115.13;6311472;28;20272;-71
2021/06/02 06:58:51;;;;;;;2.42;2.42;;;;;;;17.19;55.24;103108.78;6311545;28;20183;-72
2021/06/02 07:01:55;;;;;;;2.70;2.42;;;;;;;17.32;55.02;103114.38;6312629;28;20215;-71
2021/06/02 07:04:59;;;;;;;2.58;2.47;;;;;;;17.40;54.81;103116.94;6311423;28;20306;-70
2021/06/02 07:08:06;;;;;;;2.53;2.42;;;;;;;17.49;53.84;103110.16;6310860;28;20322;-72
2021/06/02 07:11:13;;;;;;;2.17;2.17;;;;;;;17.42;53.48;103123.09;6312639;28;20184;-71
2021/06/02 07:14:24;;;;;;;2.47;2.28;;;;;;;17.55;54.58;103107.66;6311550;28;20195;-71
2021/06/02 07:17:29;;;;;;;2.47;2.30;;;;;;;17.60;53.51;103113.41;6310947;28;20375;-72
2021/06/02 07:20:36;;;;;;;2.63;2.40;;;;;;;17.59;53.64;103114.47;6311136;28;20497;-70
2021/06/02 07:23:40;;;;;;;4.45;2.30;;;;;;;17.72;53.38;103117.28;6315892;28;20207;-70
2021/06/02 07:26:44;;;;;;;5.18;2.50;;;;;;;17.60;53.04;103127.19;6316327;28;20051;-70
2021/06/02 07:29:57;;;;;;;2.47;2.38;;;;;;;17.77;53.00;103117.50;6317089;28;20183;-70
2021/06/02 07:33:01;;;;;;;2.40;2.40;;;;;;;17.79;52.94;103118.13;6315717;28;20432;-70
2021/06/02 07:36:08;;;;;;;;;;;;;;;17.89;52.96;103110.28;6315879;28;20183;-71
2021/06/02 07:39:12;;;;;;;;;;;;;;;17.97;52.59;103123.88;6316774;28;20217;-71
2021/06/02 07:42:15;;;;;;;;;;;;;;;18.05;52.15;103121.75;6317127;28;19920;-71
2021/06/02 07:45:19;;;;;;;;;;;;;;;18.09;51.85;103116.66;6317250;28;19920;-71
2021/06/02 07:48:23;;;;;;;2.78;2.60;;;;;;;18.10;51.61;103118.38;6316223;28;20061;-70
2021/06/02 07:51:28;;;;;;;4.10;2.40;;;;;;;18.02;52.02;103113.06;6316589;28;20190;-71
2021/06/02 07:54:31;;;;;;;2.55;2.17;;;;;;;18.24;51.81;103114.53;6315635;28;20202;-71
2021/06/02 07:57:35;;;;;;;2.47;2.08;;;;;;;18.25;51.09;103120.91;6316161;28;20044;-71
2021/06/02 08:00:39;;;;;;;4.13;2.30;;;;;;;18.26;51.54;103115.16;6314992;28;20229;-71
2021/06/02 08:03:43;;;;;;;2.58;2.47;;;;;;;18.29;51.78;103123.03;6315094;28;20243;-71
2021/06/02 08:06:48;;;;;;;3.25;3.15;;;;;;;18.26;51.34;103123.44;6314858;28;20183;-72
2021/06/02 08:09:52;;;;;;;4.43;3.97;;;;;;;18.35;50.72;103122.19;6298003;28;20237;-70
2021/06/02 08:12:55;;;;;;;2.28;2.28;;;;;;;18.43;51.34;103119.22;6315784;28;20184;-70
2021/06/02 08:15:59;;;;;;;4.00;2.25;;;;;;;18.36;50.61;103129.41;6313780;28;20353;-71
2021/06/02 08:19:03;;;;;;;2.70;2.60;;;;;;;18.42;50.24;103131.31;6316060;28;20184;-71
2021/06/02 08:22:09;;;;;;;2.15;2.15;;;;;;;18.47;50.97;103136.22;6316062;28;20191;-70
2021/06/02 08:25:15;;;;;;;1.88;1.88;;;;;;;18.40;49.96;103130.69;6314328;28;20410;-70
2021/06/02 08:28:20;;;;;;;4.55;2.38;;;;;;;18.39;49.54;103139.19;6314999;28;20184;-71
2021/06/02 08:31:24;;;;;;;2.58;2.47;;;;;;;18.04;49.25;103091.59;6314160;28;20403;-71
2021/06/02 08:34:28;;;;;;;3.63;2.42;;;;;;;18.37;49.57;103128.34;6314824;28;20194;-71
2021/06/02 08:37:33;;;;;;;5.15;2.40;;;;;;;18.19;49.76;103106.03;6315317;28;20246;-71
2021/06/02 08:40:38;;;;;;;3.33;2.35;;;;;;;18.34;49.55;103130.69;6315245;28;20229;-71
2021/06/02 08:43:43;;;;;;;6.85;2.47;;;;;;;18.32;50.16;103139.19;6313904;28;20550;-71
2021/06/02 08:46:48;;;;;;;2.65;2.47;;;;;;;18.41;51.31;103132.38;6315272;28;20203;-70
2021/06/02 08:49:52;;;;;;;2.30;2.20;;;;;;;18.36;50.66;103128.56;6314818;28;20215;-70
2021/06/02 08:53:00;;;;;;;2.63;2.50;;;;;;;18.36;50.64;103134.94;6314970;28;20187;-70
2021/06/02 08:56:05;;;;;;;2.85;2.60;;;;;;;18.31;51.46;103140.25;6313834;28;20204;-71
2021/06/02 08:59:09;;;;;;;2.78;2.35;;;;;;;18.40;50.49;103141.75;6314624;28;20184;-70
2021/06/02 09:02:12;;;;;;;2.63;2.53;;;;;;;18.49;51.25;103140.47;6296969;28;20200;-70
2021/06/02 09:05:16;;;;;;;2.30;2.20;;;;;;;18.49;49.88;103140.47;6313816;28;20245;-70
2021/06/02 09:08:24;;;;;;;3.28;2.97;;;;;;;18.41;50.17;103148.97;6313902;28;20199;-70
2021/06/02 09:11:28;;;;;;;2.42;2.33;;;;;;;18.36;49.94;103129.41;6313514;28;20184;-70
2021/06/02 09:14:36;;;;;;;3.63;2.65;;;;;;;18.33;50.66;103138.16;6313900;28;20440;-70
2021/06/02 09:17:49;;;;;;;3.15;2.53;;;;;;;18.28;49.70;103143.47;6313318;28;20478;-71
2021/06/02 09:20:55;;;;;;;4.47;2.75;;;;;;;18.30;49.33;103146.84;6313630;28;20190;-71
2021/06/02 09:24:00;;;;;;;5.60;2.40;;;;;;;18.33;50.65;103138.16;6313281;28;20521;-71
2021/06/02 09:27:20;;;;;;;2.53;2.53;;;;;;;18.28;49.14;103149.00;6314174;28;20191;-71
2021/06/02 09:30:25;;;;;;;3.00;2.70;;;;;;;18.27;49.43;103133.47;6313261;28;20183;-71
2021/06/02 09:33:29;;;;;;;3.17;2.33;;;;;;;18.27;48.97;103141.75;6312766;28;20222;-71
2021/06/02 09:36:34;;;;;;;6.78;2.58;;;;;;;18.30;49.07;103134.94;6312521;28;20474;-70
2021/06/02 09:39:41;;;;;;;2.83;2.70;;;;;;;18.25;49.14;103143.88;6313516;28;20193;-70
2021/06/02 09:42:45;;;;;;;2.22;2.13;;;;;;;18.30;48.86;103146.84;6313714;28;20263;-70
2021/06/02 09:46:02;;;;;;;2.97;2.80;;;;;;;18.32;48.81;103149.38;6312508;28;20211;-71
2021/06/02 09:49:06;;;;;;;3.35;2.78;;;;;;;18.39;48.73;103145.56;6313035;28;20184;-72
2021/06/02 09:52:09;;;;;;;4.68;2.65;;;;;;;18.33;49.02;103156.63;6313244;28;20223;-72
2021/06/02 09:55:17;;;;;;;3.10;2.60;;;;;;;18.38;48.91;103160.47;6313362;28;20187;-71
2021/06/02 09:58:21;;;;;;;11.63;2.60;;;;;;;18.49;48.38;103153.47;6312900;28;20184;-72
2021/06/02 10:01:25;;;;;;;3.60;2.65;;;;;;;18.49;48.64;103159.84;6313187;28;20205;-72
2021/06/02 10:04:31;;;;;;;5.80;2.58;;;;;;;18.22;48.39;103105.59;6312363;28;20241;-72
2021/06/02 10:07:44;;;;;;;4.18;2.50;;;;;;;18.53;48.83;103157.50;6311879;28;20184;-72
2021/06/02 10:10:49;;;;;;;2.90;2.40;;;;;;;18.55;48.42;103150.69;6312644;28;20184;-72
2021/06/02 10:13:54;;;;;;;4.15;2.60;;;;;;;18.58;48.74;103144.75;6312536;28;20183;-72
2021/06/02 10:16:58;;;;;;;2.63;2.38;;;;;;;18.70;48.42;103148.53;6313283;28;20191;-72
2021/06/02 10:20:08;;;;;;;2.70;2.60;;;;;;;18.71;48.46;103138.34;6311741;28;20187;-72
2021/06/02 10:23:16;;;;;;;4.63;2.58;;;;;;;18.80;47.85;103141.72;6311257;28;20184;-71
2021/06/02 10:26:38;;;;;;;3.08;2.78;;;;;;;18.82;47.85;103150.66;6312847;28;20207;-72
2021/06/02 10:29:42;;;;;;;2.78;2.50;;;;;;;18.85;47.84;103150.22;6312775;28;20221;-71
2021/06/02 10:32:46;;;;;;;2.58;2.47;;;;;;;18.84;47.13;103148.53;6311131;28;20250;-71
2021/06/02 10:35:49;;;;;;;3.30;2.40;;;;;;;18.89;47.42;103140.41;6311238;28;20219;-71
2021/06/02 10:38:54;;;;;;;;;;;;;;;18.94;47.82;103138.72;6312559;28;19920;-71
2021/06/02 10:42:03;;;;;;;;;;;;;;;19.04;47.63;103138.25;6313040;28;19916;-72
2021/06/02 10:45:15;;;;;;;2.47;2.38;;;;;;;19.11;47.27;103139.06;6310804;28;20803;-72
2021/06/02 10:48:37;;;;;;;2.45;2.40;;;;;;;19.03;47.36;103142.09;6311974;28;20198;-70
2021/06/02 10:51:43;;;;;;;3.75;2.67;;;;;;;19.11;47.40;103139.06;6312113;28;20237;-70
2021/06/02 10:54:47;;;;;;;4.88;2.35;;;;;;;19.23;47.18;103138.16;6311902;28;20223;-70
2021/06/02 10:58:17;;;;;;;2.78;2.45;;;;;;;19.28;46.62;103134.75;6311913;28;20077;-71
2021/06/02 11:01:21;;;;;;;5.55;3.00;;;;;;;19.37;47.18;103139.00;6312142;28;20206;-71
2021/06/02 11:04:25;;;;;;;7.97;2.90;;;;;;;19.38;47.40;103128.78;6311050;28;20270;-71
2021/06/02 11:07:31;;;;;;;3.95;2.47;;;;;;;19.41;46.12;103129.19;6312145;28;20214;-71
2021/06/02 11:10:36;;;;;;;3.00;2.00;;;;;;;19.45;45.97;103133.22;6310948;28;20366;-71
2021/06/02 11:13:42;;;;;;;6.18;2.70;;;;;;;19.60;46.05;103128.22;6311652;28;20183;-71
2021/06/02 11:16:47;;;;;;;5.32;2.30;;;;;;;19.68;45.44;103125.19;6311813;28;20254;-71
2021/06/02 11:19:56;;;;;;;3.38;2.50;;;;;;;19.68;45.62;103114.13;6310801;28;20190;-72
2021/06/02 11:23:05;;;;;;;9.73;2.30;;;;;;;19.88;44.77;103125.91;6311705;28;20191;-72
2021/06/02 11:26:22;;;;;;;3.55;2.35;;;;;;;19.95;44.59;103129.47;6311867;28;20207;-71
2021/06/02 11:29:28;;;;;;;2.47;2.25;;;;;;;19.88;45.13;103131.44;6310682;28;20441;-72
2021/06/02 11:32:48;;;;;;;2.55;2.35;;;;;;;19.87;44.63;103128.91;6311843;28;20184;-72
2021/06/02 11:36:10;;;;;;;2.67;2.40;;;;;;;19.95;44.72;103121.16;6312057;28;20187;-72
2021/06/02 11:39:14;;;;;;;9.97;2.50;;;;;;;20.18;44.57;103130.81;6310844;28;20466;-70
2021/06/02 11:42:27;;;;;;;4.85;2.65;;;;;;;20.22;44.38;103126.50;6311979;28;20184;-71
2021/06/02 11:45:32;;;;;;;2.38;2.28;;;;;;;20.21;44.19;103124.81;6311639;28;20285;-71
2021/06/02 11:48:38;;;;;;;3.33;2.90;;;;;;;20.30;43.79;103129.88;6312050;28;20256;-71
2021/06/02 11:51:41;;;;;;;2.28;2.17;;;;;;;20.36;42.84;103130.91;6310615;28;20475;-70
2021/06/02 11:54:50;;;;;;;3.47;2.22;;;;;;;20.41;42.88;103131.06;6311033;28;20230;-71
2021/06/02 11:57:55;;;;;;;2.05;2.00;;;;;;;20.53;41.35;103120.91;6311233;28;20221;-71
2021/06/02 12:01:00;;;;;;;;;;;;;;;20.52;41.55;103128.38;6312997;28;20045;-74
2021/06/02 12:04:03;;;;;;;;;;;;;;;20.73;42.01;103121.56;6311089;28;19916;-71
2021/06/02 12:07:20;;;;;;;;;;;;;;;20.70;42.22;103119.22;6311628;28;19922;-71
2021/06/02 12:10:26;;;;;;;2.15;2.05;;;;;;;20.69;42.04;103114.78;6313778;28;20202;-71
2021/06/02 12:13:34;;;;;;;1.85;1.75;;;;;;;20.67;41.67;103116.94;6315631;28;20191;-71
2021/06/02 12:16:39;;;;;;;2.80;1.90;;;;;;;20.80;40.19;103119.53;6315697;28;20203;-71
2021/06/02 12:19:43;;;;;;;4.28;2.13;;;;;;;20.75;40.26;103110.25;6315945;28;20184;-71
2021/06/02 12:22:47;;;;;;;5.95;2.03;;;;;;;20.74;41.15;103098.28;6314504;28;20185;-71
2021/06/02 12:25:51;;;;;;;14.43;2.55;;;;;;;20.93;41.21;103108.31;6314459;28;20286;-71
2021/06/02 12:28:56;;;;;;;2.08;2.08;;;;;;;20.86;40.32;103109.47;6315785;28;20251;-71
2021/06/02 12:32:01;;;;;;;3.92;2.00;;;;;;;20.95;40.10;103110.88;6314259;28;20184;-72
2021/06/02 12:35:23;;;;;;;8.15;2.60;;;;;;;21.01;40.44;103105.22;6314351;28;20199;-71
2021/06/02 12:38:27;;;;;;;2.42;2.00;;;;;;;20.93;40.18;103102.75;6315680;28;20280;-71
2021/06/02 12:41:31;;;;;;;2.50;2.30;;;;;;;21.12;40.56;103107.25;6315248;28;20231;-72
2021/06/02 12:44:36;;;;;;;;;;;;;;;21.15;39.27;103101.25;6316156;28;20044;-72
2021/06/02 12:47:45;;;;;;;;;;;;;;;21.15;40.18;103101.25;6314959;28;20027;-71
2021/06/02 12:50:49;;;;;;;;;;;;;;;21.07;39.26;103087.69;6316105;28;19923;-72
2021/06/02 12:53:53;;;;;;;;;;;;;;;21.21;40.37;103100.28;6314620;28;19916;-72
2021/06/02 12:56:56;;;;;;;3.60;2.20;;;;;;;21.10;39.80;103080.81;6315157;28;19993;-72
2021/06/02 13:00:00;;;;;;;;;;;;;;;21.35;39.33;103094.56;6315645;28;20146;-70
2021/06/02 13:03:06;;;;;;;;;;;;;;;21.49;38.89;103090.53;6315437;28;19916;-70
2021/06/02 13:06:15;;;;;;;;;;;;;;;21.55;38.97;103084.03;6314163;28;19954;-70
2021/06/02 13:09:19;;;;;;;;;;;;;;;21.55;39.13;103075.69;6315096;28;19916;-70
2021/06/02 13:12:24;;;;;;;;;;;;;;;21.65;39.25;103078.72;6314368;28;19962;-71
2021/06/02 13:15:30;;;;;;;2.85;2.08;;;;;;;21.63;38.74;103075.34;6313776;28;20649;-71
2021/06/02 13:18:35;;;;;;;3.17;2.20;;;;;;;21.51;38.79;103082.81;6313169;28;20215;-71
2021/06/02 13:21:49;;;;;;;2.05;1.83;;;;;;;21.58;38.69;103069.66;6313333;28;20183;-71
2021/06/02 13:25:01;;;;;;;2.13;2.13;;;;;;;21.48;38.65;103077.72;6313195;28;20526;-71
2021/06/02 13:28:06;;;;;;;19.95;2.75;;;;;;;21.42;39.56;103086.97;6312855;28;20225;-71
2021/06/02 13:31:11;;;;;;;17.65;3.70;;;;;;;21.59;39.74;103086.09;6314163;28;20247;-72
2021/06/02 13:34:31;;;;;;;2.70;2.20;;;;;;;21.67;39.47;103084.94;6312886;28;20187;-70
2021/06/02 13:37:43;;;;;;;3.67;3.22;;;;;;;22.33;38.10;103082.78;6294953;28;20204;-70
2021/06/02 13:40:48;;;;;;;7.00;2.40;;;;;;;22.56;37.55;103081.91;6313340;28;20210;-70
2021/06/02 13:43:53;;;;;;;4.20;2.00;;;;;;;22.66;37.23;103081.31;6313885;28;20183;-70
2021/06/02 13:46:57;;;;;;;3.15;2.40;;;;;;;24.49;34.35;103070.63;6313273;28;20246;-70
2021/06/02 13:50:20;;;;;;;5.93;2.00;;;;;;;26.19;30.98;103072.94;6314006;28;20258;-71
2021/06/02 13:53:23;;;;;;;3.67;2.33;;;;;;;26.40;30.52;103069.19;6313236;28;20222;-70
2021/06/02 13:56:28;;;;;;;4.25;1.95;;;;;;;26.00;30.63;103064.91;6312206;28;20524;-72
2021/06/02 13:59:48;;;;;;;2.15;2.00;;;;;;;24.80;32.30;103076.44;6295424;28;20222;-71
2021/06/02 14:02:51;;;;;;;2.60;1.90;;;;;;;25.46;31.76;103077.25;6312812;28;20245;-71
2021/06/02 14:05:56;;;;;;;3.47;2.58;;;;;;;25.85;31.36;103069.53;6313239;28;20269;-71
2021/06/02 14:09:00;;;;;;;2.50;2.40;;;;;;;25.74;31.09;103068.59;6312745;28;20458;-71
2021/06/02 14:12:06;;;;;;;2.33;2.05;;;;;;;24.85;31.99;103070.91;6312956;28;20222;-71
2021/06/02 14:15:12;;;;;;;2.97;2.22;;;;;;;24.34;33.14;103076.84;6313133;28;20226;-70
2021/06/02 14:18:15;;;;;;;4.47;2.60;;;;;;;23.71;34.41;103079.03;6312629;28;20191;-71
2021/06/02 14:21:20;;;;;;;9.07;2.33;;;;;;;23.34;34.48;103078.63;6312868;28;20191;-71
2021/06/02 14:24:27;;;;;;;2.17;2.00;;;;;;;22.76;35.06;103075.97;6312970;28;20194;-71
2021/06/02 14:27:30;;;;;;;11.52;2.80;;;;;;;22.90;35.08;103083.00;6312321;28;20211;-71
2021/06/02 14:30:35;;;;;;;2.20;2.00;;;;;;;22.89;35.28;103078.50;6311800;28;20233;-71
2021/06/02 14:33:39;;;;;;;2.83;2.20;;;;;;;22.69;35.97;103080.84;6310644;28;20481;-71
2021/06/02 14:36:46;;;;;;;2.78;2.58;;;;;;;22.48;35.88;103081.41;6312258;28;20191;-72
2021/06/02 14:39:50;;;;;;;8.73;2.63;;;;;;;22.56;36.10;103083.84;6311210;28;20373;-72
2021/06/02 14:42:53;;;;;;;3.10;2.20;;;;;;;23.14;34.65;103079.03;6312461;28;20236;-72
2021/06/02 14:45:59;;;;;;;;;;;;;;;23.54;33.98;103074.31;6312904;28;20187;-72
2021/06/02 14:49:04;;;;;;;;;;;;;;;23.39;34.23;103048.94;6313069;28;19935;-72
2021/06/02 14:52:10;;;;;;;;;;;;;;;24.16;33.34;103055.59;6312887;28;19916;-72
2021/06/02 14:55:14;;;;;;;;;;;;;;;23.29;33.87;103065.41;6312767;28;19917;-73
2021/06/02 14:58:17;;;;;;;;;;;;;;;22.99;34.40;103070.34;6312320;28;19957;-72
2021/06/02 15:01:21;;;;;;;;;;;;;;;22.77;34.83;103067.41;6312646;28;19923;-70